Pinsonfork, KY (41555)

4:28 PM EDT on July 04, 2015 (GMT -0400)
West Williamson, WV | | Change Station
CLOSE
Current Station
Personal Weather Station
Location: Williamson, WV
Elevation: 682 ft
Nearby Weather Stations

Elev 682 ft 37.68 °N, 82.29 °W | Updated 32 seconds ago

Mostly Cloudy
Mostly Cloudy
79.7 °F
Feels Like 83 °F
N
0.9
Wind Variable Wind from SW
Gusts 2.5 mph

Today
High -- | Low -- °F
--% Chance of Precip.
Yesterday
High -- | Low -- °F
Precip. -- in
6:12 AM 8:53 PM
Waning Gibbous, 90% visible
Pressure 30.02 in
Visibility 10.0 miles
Clouds Mostly Cloudy 1700 ft
Mostly Cloudy 2200 ft
Overcast 8000 ft
Heat Index 83 °F
Dew Point 69 °F
Humidity 71%
Rainfall 0.09 in
Snow Depth Not available.
UV 2 out of 12
Pollen .50 out of 12
Air Quality Not available.
Flu Activity Not available.
METAR KSJS 042015Z AUTO 00000KT 10SM BKN017 BKN022 OVC080 24/21 A3002 RMK AO2 T02400208

More Conditions Fewer Conditions

Pressure 30.02 in
Visibility 10.0 miles
Clouds Mostly Cloudy 1700 ft
Mostly Cloudy 2200 ft
Overcast 8000 ft
Heat Index 83 °F
Dew Point 69 °F
Humidity 71%
Rainfall 0.09 in
Snow Depth Not available.
UV 2 out of 12
Pollen .50 out of 12
Air Quality Not available.
Flu Activity Not available.
METAR KSJS 042015Z AUTO 00000KT 10SM BKN017 BKN022 OVC080 24/21 A3002 RMK AO2 T02400208

More Conditions Fewer Conditions

10-Day Weather Forecast

×

Almanac

Astronomy

Jul. 04, 2015 Rise Set
Actual Time
Civil Twilight
Nautical Twilight
Astronomical Twilight
Moon
Length of Visible Light
Length of Day
Tomorrow will be .
, % of the Moon is Illuminated

Today's Extremes

State Highs State Lows

Community

WunderPhotos

Upload Photos

1,835,086 photos uploaded!

WunderBlogs® & News

Nearby

Air Quality

  Air Quality AQ Index Pollutant
Not available.

Snow Depth

Station Depth Elevation

Earthquake Activity

City Distance Mag. Time & Date
Minimum magnitude displayed is 2.5.

Coastal Water Temperatures

Place Temperature

Stations

Nearby Weather Stations

Station Location Temp. Windchill Dew Point Humidity Wind Precip. Elev Updated Type